sensor_id;sensor_type;location;lat;lon;timestamp;temperature;humidity
49465;DHT22;35358;49.342;8.802;2022-09-09T00:00:38;14.80;99.90
49465;DHT22;35358;49.342;8.802;2022-09-09T00:03:12;14.70;99.90
49465;DHT22;35358;49.342;8.802;2022-09-09T00:08:25;14.60;99.90
49465;DHT22;35358;49.342;8.802;2022-09-09T00:10:57;14.60;99.90
49465;DHT22;35358;49.342;8.802;2022-09-09T00:21:22;14.70;99.90
49465;DHT22;35358;49.342;8.802;2022-09-09T00:23:53;14.80;99.90
49465;DHT22;35358;49.342;8.802;2022-09-09T00:28:52;14.70;99.90
49465;DHT22;35358;49.342;8.802;2022-09-09T00:31:23;14.80;99.90
49465;DHT22;35358;49.342;8.802;2022-09-09T00:33:50;14.80;99.90
49465;DHT22;35358;49.342;8.802;2022-09-09T00:36:17;14.80;99.90
49465;DHT22;35358;49.342;8.802;2022-09-09T00:38:47;14.80;99.90
49465;DHT22;35358;49.342;8.802;2022-09-09T00:41:26;14.80;99.90
49465;DHT22;35358;49.342;8.802;2022-09-09T00:43:57;14.90;99.90
49465;DHT22;35358;49.342;8.802;2022-09-09T00:56:37;14.80;99.90
49465;DHT22;35358;49.342;8.802;2022-09-09T01:01:38;14.80;99.90
49465;DHT22;35358;49.342;8.802;2022-09-09T01:04:05;14.80;99.90
49465;DHT22;35358;49.342;8.802;2022-09-09T01:06:36;14.90;99.90
49465;DHT22;35358;49.342;8.802;2022-09-09T01:09:16;14.90;99.90
49465;DHT22;35358;49.342;8.802;2022-09-09T01:24:45;14.70;99.90
49465;DHT22;35358;49.342;8.802;2022-09-09T01:27:13;14.70;99.90
49465;DHT22;35358;49.342;8.802;2022-09-09T01:29:40;14.80;99.90
49465;DHT22;35358;49.342;8.802;2022-09-09T01:32:49;14.80;99.90
49465;DHT22;35358;49.342;8.802;2022-09-09T01:34:54;14.70;99.90
49465;DHT22;35358;49.342;8.802;2022-09-09T01:37:20;14.70;99.90
49465;DHT22;35358;49.342;8.802;2022-09-09T01:39:47;14.70;99.90
49465;DHT22;35358;49.342;8.802;2022-09-09T01:42:13;14.80;99.90
49465;DHT22;35358;49.342;8.802;2022-09-09T01:44:40;14.80;99.90
49465;DHT22;35358;49.342;8.802;2022-09-09T01:47:07;14.70;99.90
49465;DHT22;35358;49.342;8.802;2022-09-09T01:49:33;14.60;99.90
49465;DHT22;35358;49.342;8.802;2022-09-09T01:51:59;14.50;99.90
49465;DHT22;35358;49.342;8.802;2022-09-09T01:54:29;14.70;99.90
49465;DHT22;35358;49.342;8.802;2022-09-09T01:57:01;14.70;99.90
49465;DHT22;35358;49.342;8.802;2022-09-09T02:06:57;14.70;99.90
49465;DHT22;35358;49.342;8.802;2022-09-09T02:09:24;14.60;99.90
49465;DHT22;35358;49.342;8.802;2022-09-09T02:11:57;14.50;99.90
49465;DHT22;35358;49.342;8.802;2022-09-09T02:14:28;14.60;99.90
49465;DHT22;35358;49.342;8.802;2022-09-09T02:17:20;14.60;99.90
49465;DHT22;35358;49.342;8.802;2022-09-09T02:19:45;14.70;99.90
49465;DHT22;35358;49.342;8.802;2022-09-09T02:22:18;14.70;99.90
49465;DHT22;35358;49.342;8.802;2022-09-09T02:24:44;14.60;99.90
49465;DHT22;35358;49.342;8.802;2022-09-09T02:27:11;14.70;99.90
49465;DHT22;35358;49.342;8.802;2022-09-09T02:29:41;14.60;99.90
49465;DHT22;35358;49.342;8.802;2022-09-09T02:32:11;14.60;99.90
49465;DHT22;35358;49.342;8.802;2022-09-09T02:34:40;14.70;99.90
49465;DHT22;35358;49.342;8.802;2022-09-09T02:37:11;14.60;99.90
49465;DHT22;35358;49.342;8.802;2022-09-09T02:39:37;14.60;99.90
49465;DHT22;35358;49.342;8.802;2022-09-09T02:42:03;14.60;99.90
49465;DHT22;35358;49.342;8.802;2022-09-09T02:44:29;14.60;99.90
49465;DHT22;35358;49.342;8.802;2022-09-09T02:52:08;14.50;99.90
49465;DHT22;35358;49.342;8.802;2022-09-09T02:54:34;14.50;99.90
49465;DHT22;35358;49.342;8.802;2022-09-09T02:57:11;14.50;99.90
49465;DHT22;35358;49.342;8.802;2022-09-09T02:59:39;14.60;99.90
49465;DHT22;35358;49.342;8.802;2022-09-09T03:02:07;14.70;99.90
49465;DHT22;35358;49.342;8.802;2022-09-09T03:04:37;14.80;99.90
49465;DHT22;35358;49.342;8.802;2022-09-09T03:07:04;14.70;99.90
49465;DHT22;35358;49.342;8.802;2022-09-09T03:09:30;14.70;99.90
49465;DHT22;35358;49.342;8.802;2022-09-09T03:11:58;14.60;99.90
49465;DHT22;35358;49.342;8.802;2022-09-09T03:14:23;14.60;99.90
49465;DHT22;35358;49.342;8.802;2022-09-09T03:16:55;14.70;99.90
49465;DHT22;35358;49.342;8.802;2022-09-09T03:19:23;14.70;99.90
49465;DHT22;35358;49.342;8.802;2022-09-09T03:21:50;14.80;99.90
49465;DHT22;35358;49.342;8.802;2022-09-09T03:24:18;14.90;99.90
49465;DHT22;35358;49.342;8.802;2022-09-09T03:26:44;14.90;99.90
49465;DHT22;35358;49.342;8.802;2022-09-09T03:29:10;14.80;99.90
49465;DHT22;35358;49.342;8.802;2022-09-09T03:31:37;14.80;99.90
49465;DHT22;35358;49.342;8.802;2022-09-09T03:34:03;14.70;99.90
49465;DHT22;35358;49.342;8.802;2022-09-09T03:36:28;14.60;99.90
49465;DHT22;35358;49.342;8.802;2022-09-09T03:38:57;14.50;99.90
49465;DHT22;35358;49.342;8.802;2022-09-09T03:41:25;14.40;99.90
49465;DHT22;35358;49.342;8.802;2022-09-09T03:43:51;14.40;99.90
49465;DHT22;35358;49.342;8.802;2022-09-09T03:46:17;14.40;99.90
49465;DHT22;35358;49.342;8.802;2022-09-09T03:48:43;14.30;99.90
49465;DHT22;35358;49.342;8.802;2022-09-09T03:51:09;14.30;99.90
49465;DHT22;35358;49.342;8.802;2022-09-09T03:53:35;14.30;99.90
49465;DHT22;35358;49.342;8.802;2022-09-09T03:56:06;14.30;99.90
49465;DHT22;35358;49.342;8.802;2022-09-09T03:58:34;14.30;99.90
49465;DHT22;35358;49.342;8.802;2022-09-09T04:01:01;14.40;99.90
49465;DHT22;35358;49.342;8.802;2022-09-09T04:03:27;14.30;99.90
49465;DHT22;35358;49.342;8.802;2022-09-09T04:05:53;14.30;99.90
49465;DHT22;35358;49.342;8.802;2022-09-09T04:08:21;14.40;99.90
49465;DHT22;35358;49.342;8.802;2022-09-09T04:10:48;14.40;99.90
49465;DHT22;35358;49.342;8.802;2022-09-09T04:13:14;14.50;99.90
49465;DHT22;35358;49.342;8.802;2022-09-09T04:15:40;14.50;99.90
49465;DHT22;35358;49.342;8.802;2022-09-09T04:18:05;14.40;99.90
49465;DHT22;35358;49.342;8.802;2022-09-09T04:20:31;14.50;99.90
49465;DHT22;35358;49.342;8.802;2022-09-09T04:22:57;14.60;99.90
49465;DHT22;35358;49.342;8.802;2022-09-09T04:25:23;14.40;99.90
49465;DHT22;35358;49.342;8.802;2022-09-09T04:27:52;14.30;99.90
49465;DHT22;35358;49.342;8.802;2022-09-09T04:30:19;14.40;99.90
49465;DHT22;35358;49.342;8.802;2022-09-09T04:32:45;14.40;99.90
49465;DHT22;35358;49.342;8.802;2022-09-09T04:35:10;14.40;99.90
49465;DHT22;35358;49.342;8.802;2022-09-09T04:37:36;14.40;99.90
49465;DHT22;35358;49.342;8.802;2022-09-09T04:40:01;14.30;99.90
49465;DHT22;35358;49.342;8.802;2022-09-09T04:42:27;14.40;99.90
49465;DHT22;35358;49.342;8.802;2022-09-09T04:44:53;14.40;99.90
49465;DHT22;35358;49.342;8.802;2022-09-09T04:47:20;14.40;99.90
49465;DHT22;35358;49.342;8.802;2022-09-09T04:49:46;14.40;99.90
49465;DHT22;35358;49.342;8.802;2022-09-09T04:52:12;14.40;99.90
49465;DHT22;35358;49.342;8.802;2022-09-09T04:54:38;14.40;99.90
49465;DHT22;35358;49.342;8.802;2022-09-09T04:57:04;14.40;99.90
49465;DHT22;35358;49.342;8.802;2022-09-09T04:59:30;14.40;99.90
49465;DHT22;35358;49.342;8.802;2022-09-09T05:01:57;14.50;99.90
49465;DHT22;35358;49.342;8.802;2022-09-09T05:04:26;14.60;99.90
49465;DHT22;35358;49.342;8.802;2022-09-09T05:06:51;14.50;99.90
49465;DHT22;35358;49.342;8.802;2022-09-09T05:09:16;14.40;99.90
49465;DHT22;35358;49.342;8.802;2022-09-09T05:11:42;14.40;99.90
49465;DHT22;35358;49.342;8.802;2022-09-09T05:14:11;14.40;99.90
49465;DHT22;35358;49.342;8.802;2022-09-09T05:16:37;14.30;99.90
49465;DHT22;35358;49.342;8.802;2022-09-09T05:19:02;14.30;99.90
49465;DHT22;35358;49.342;8.802;2022-09-09T05:21:28;14.40;99.90
49465;DHT22;35358;49.342;8.802;2022-09-09T05:23:56;14.40;99.90
49465;DHT22;35358;49.342;8.802;2022-09-09T05:26:23;14.50;99.90
49465;DHT22;35358;49.342;8.802;2022-09-09T05:28:49;14.60;99.90
49465;DHT22;35358;49.342;8.802;2022-09-09T05:31:16;14.60;99.90
49465;DHT22;35358;49.342;8.802;2022-09-09T05:33:42;14.70;99.90
49465;DHT22;35358;49.342;8.802;2022-09-09T05:36:15;14.70;99.90
49465;DHT22;35358;49.342;8.802;2022-09-09T05:38:42;14.80;99.90
49465;DHT22;35358;49.342;8.802;2022-09-09T05:41:10;14.80;99.90
49465;DHT22;35358;49.342;8.802;2022-09-09T05:43:36;14.90;99.90
49465;DHT22;35358;49.342;8.802;2022-09-09T05:46:12;14.90;99.90
49465;DHT22;35358;49.342;8.802;2022-09-09T05:48:38;15.00;99.90
49465;DHT22;35358;49.342;8.802;2022-09-09T05:51:05;15.00;99.90
49465;DHT22;35358;49.342;8.802;2022-09-09T05:53:34;15.10;99.90
49465;DHT22;35358;49.342;8.802;2022-09-09T05:56:00;15.30;99.90
49465;DHT22;35358;49.342;8.802;2022-09-09T05:58:29;15.30;99.90
49465;DHT22;35358;49.342;8.802;2022-09-09T06:03:28;15.40;99.90
49465;DHT22;35358;49.342;8.802;2022-09-09T06:06:00;15.50;99.90
49465;DHT22;35358;49.342;8.802;2022-09-09T06:08:26;15.50;99.90
49465;DHT22;35358;49.342;8.802;2022-09-09T06:10:52;15.60;99.90
49465;DHT22;35358;49.342;8.802;2022-09-09T06:13:17;15.60;99.90
49465;DHT22;35358;49.342;8.802;2022-09-09T06:15:54;15.70;99.90
49465;DHT22;35358;49.342;8.802;2022-09-09T06:18:19;15.70;99.90
49465;DHT22;35358;49.342;8.802;2022-09-09T06:21:00;15.70;99.90
49465;DHT22;35358;49.342;8.802;2022-09-09T06:23:27;15.80;99.90
49465;DHT22;35358;49.342;8.802;2022-09-09T06:26:05;15.80;99.90
49465;DHT22;35358;49.342;8.802;2022-09-09T06:28:31;15.80;99.90
49465;DHT22;35358;49.342;8.802;2022-09-09T06:31:00;15.90;99.90
49465;DHT22;35358;49.342;8.802;2022-09-09T06:33:26;15.90;99.90
49465;DHT22;35358;49.342;8.802;2022-09-09T06:35:53;16.10;99.90
49465;DHT22;35358;49.342;8.802;2022-09-09T06:38:19;16.30;99.90
49465;DHT22;35358;49.342;8.802;2022-09-09T06:40:53;16.50;99.90
49465;DHT22;35358;49.342;8.802;2022-09-09T06:43:23;16.60;99.90
49465;DHT22;35358;49.342;8.802;2022-09-09T06:45:57;16.70;99.90
49465;DHT22;35358;49.342;8.802;2022-09-09T06:48:23;16.80;99.90
49465;DHT22;35358;49.342;8.802;2022-09-09T06:50:51;16.90;99.90
49465;DHT22;35358;49.342;8.802;2022-09-09T06:53:17;17.00;99.90
49465;DHT22;35358;49.342;8.802;2022-09-09T06:55:44;17.00;99.90
49465;DHT22;35358;49.342;8.802;2022-09-09T06:58:12;17.10;99.90
49465;DHT22;35358;49.342;8.802;2022-09-09T07:00:40;17.20;99.90
49465;DHT22;35358;49.342;8.802;2022-09-09T07:03:06;17.20;99.90
49465;DHT22;35358;49.342;8.802;2022-09-09T07:05:36;17.30;99.90
49465;DHT22;35358;49.342;8.802;2022-09-09T07:08:04;17.30;99.90
49465;DHT22;35358;49.342;8.802;2022-09-09T07:10:32;17.30;99.90
49465;DHT22;35358;49.342;8.802;2022-09-09T07:13:00;17.40;99.90
49465;DHT22;35358;49.342;8.802;2022-09-09T07:15:27;17.40;99.90
49465;DHT22;35358;49.342;8.802;2022-09-09T07:17:53;17.40;99.90
49465;DHT22;35358;49.342;8.802;2022-09-09T07:20:19;17.40;99.90
49465;DHT22;35358;49.342;8.802;2022-09-09T07:22:45;17.40;99.90
49465;DHT22;35358;49.342;8.802;2022-09-09T07:25:10;17.40;99.90
49465;DHT22;35358;49.342;8.802;2022-09-09T07:27:39;17.40;99.90
49465;DHT22;35358;49.342;8.802;2022-09-09T07:30:06;17.50;99.90
49465;DHT22;35358;49.342;8.802;2022-09-09T07:32:31;17.60;99.90
49465;DHT22;35358;49.342;8.802;2022-09-09T07:34:57;17.70;99.90
49465;DHT22;35358;49.342;8.802;2022-09-09T07:37:25;17.80;99.90
49465;DHT22;35358;49.342;8.802;2022-09-09T07:39:53;17.80;99.90
49465;DHT22;35358;49.342;8.802;2022-09-09T07:42:18;17.90;99.90
49465;DHT22;35358;49.342;8.802;2022-09-09T07:44:44;17.90;99.90
49465;DHT22;35358;49.342;8.802;2022-09-09T07:47:10;17.80;99.90
49465;DHT22;35358;49.342;8.802;2022-09-09T07:49:36;17.90;99.90
49465;DHT22;35358;49.342;8.802;2022-09-09T07:52:01;17.90;99.90
49465;DHT22;35358;49.342;8.802;2022-09-09T07:54:28;17.90;99.90
49465;DHT22;35358;49.342;8.802;2022-09-09T07:56:54;17.90;99.90
49465;DHT22;35358;49.342;8.802;2022-09-09T07:59:19;17.90;99.90
49465;DHT22;35358;49.342;8.802;2022-09-09T08:01:46;17.90;99.90
49465;DHT22;35358;49.342;8.802;2022-09-09T08:04:15;17.90;99.90
49465;DHT22;35358;49.342;8.802;2022-09-09T08:06:45;18.00;99.90
49465;DHT22;35358;49.342;8.802;2022-09-09T08:09:13;18.00;99.90
49465;DHT22;35358;49.342;8.802;2022-09-09T08:11:38;18.10;99.90
49465;DHT22;35358;49.342;8.802;2022-09-09T08:14:08;18.20;99.90
49465;DHT22;35358;49.342;8.802;2022-09-09T08:16:35;18.20;99.90
49465;DHT22;35358;49.342;8.802;2022-09-09T08:19:02;18.30;99.90
49465;DHT22;35358;49.342;8.802;2022-09-09T08:21:31;18.50;99.90
49465;DHT22;35358;49.342;8.802;2022-09-09T08:23:57;18.70;99.90
49465;DHT22;35358;49.342;8.802;2022-09-09T08:26:27;19.00;99.90
49465;DHT22;35358;49.342;8.802;2022-09-09T08:28:54;19.10;99.90
49465;DHT22;35358;49.342;8.802;2022-09-09T08:31:22;19.10;99.90
49465;DHT22;35358;49.342;8.802;2022-09-09T08:33:50;19.30;99.90
49465;DHT22;35358;49.342;8.802;2022-09-09T08:36:19;19.40;99.90
49465;DHT22;35358;49.342;8.802;2022-09-09T08:38:49;19.60;99.90
49465;DHT22;35358;49.342;8.802;2022-09-09T08:49:11;20.30;99.90
49465;DHT22;35358;49.342;8.802;2022-09-09T08:51:39;20.00;99.90
49465;DHT22;35358;49.342;8.802;2022-09-09T08:54:07;19.30;99.90
49465;DHT22;35358;49.342;8.802;2022-09-09T08:56:34;18.80;99.90
49465;DHT22;35358;49.342;8.802;2022-09-09T08:59:01;18.30;99.90
49465;DHT22;35358;49.342;8.802;2022-09-09T09:11:21;17.60;99.90
49465;DHT22;35358;49.342;8.802;2022-09-09T09:18:51;17.90;99.90
49465;DHT22;35358;49.342;8.802;2022-09-09T09:21:32;17.90;99.90
49465;DHT22;35358;49.342;8.802;2022-09-09T09:24:00;18.00;99.90
49465;DHT22;35358;49.342;8.802;2022-09-09T09:26:30;18.10;99.90
49465;DHT22;35358;49.342;8.802;2022-09-09T09:28:57;18.10;99.90
49465;DHT22;35358;49.342;8.802;2022-09-09T09:31:26;18.10;99.90
49465;DHT22;35358;49.342;8.802;2022-09-09T09:33:55;18.30;99.90
49465;DHT22;35358;49.342;8.802;2022-09-09T09:36:23;18.40;99.90
49465;DHT22;35358;49.342;8.802;2022-09-09T09:38:54;18.50;99.90
49465;DHT22;35358;49.342;8.802;2022-09-09T09:41:34;18.60;99.90
49465;DHT22;35358;49.342;8.802;2022-09-09T09:44:00;18.80;99.90
49465;DHT22;35358;49.342;8.802;2022-09-09T09:46:27;18.90;99.90
49465;DHT22;35358;49.342;8.802;2022-09-09T09:48:58;19.00;99.90
49465;DHT22;35358;49.342;8.802;2022-09-09T09:51:25;19.00;99.90
49465;DHT22;35358;49.342;8.802;2022-09-09T09:53:51;19.10;99.90
49465;DHT22;35358;49.342;8.802;2022-09-09T09:56:25;19.20;99.90
49465;DHT22;35358;49.342;8.802;2022-09-09T09:58:51;19.30;99.90
49465;DHT22;35358;49.342;8.802;2022-09-09T10:01:22;19.40;99.90
49465;DHT22;35358;49.342;8.802;2022-09-09T10:04:03;19.70;99.90
49465;DHT22;35358;49.342;8.802;2022-09-09T10:06:38;19.90;99.90
49465;DHT22;35358;49.342;8.802;2022-09-09T10:09:20;19.90;99.90
49465;DHT22;35358;49.342;8.802;2022-09-09T10:11:58;20.10;99.90
49465;DHT22;35358;49.342;8.802;2022-09-09T10:20:00;19.80;99.90
49465;DHT22;35358;49.342;8.802;2022-09-09T10:22:38;19.80;99.90
49465;DHT22;35358;49.342;8.802;2022-09-09T10:27:54;19.90;99.90
49465;DHT22;35358;49.342;8.802;2022-09-09T10:33:10;19.90;99.90
49465;DHT22;35358;49.342;8.802;2022-09-09T10:38:17;19.70;99.90
49465;DHT22;35358;49.342;8.802;2022-09-09T10:50:51;20.10;99.90
49465;DHT22;35358;49.342;8.802;2022-09-09T10:56:05;20.10;99.90
49465;DHT22;35358;49.342;8.802;2022-09-09T11:01:12;20.10;99.90
49465;DHT22;35358;49.342;8.802;2022-09-09T11:03:41;20.20;99.90
49465;DHT22;35358;49.342;8.802;2022-09-09T11:06:12;20.40;99.90
49465;DHT22;35358;49.342;8.802;2022-09-09T11:08:39;20.30;99.90
49465;DHT22;35358;49.342;8.802;2022-09-09T11:13:38;20.30;99.90
49465;DHT22;35358;49.342;8.802;2022-09-09T11:18:31;20.70;99.90
49465;DHT22;35358;49.342;8.802;2022-09-09T11:21:00;20.80;99.90
49465;DHT22;35358;49.342;8.802;2022-09-09T11:23:37;20.60;99.90
49465;DHT22;35358;49.342;8.802;2022-09-09T11:26:05;20.70;99.90
49465;DHT22;35358;49.342;8.802;2022-09-09T11:44:35;21.60;99.90
49465;DHT22;35358;49.342;8.802;2022-09-09T11:47:00;21.80;99.90
49465;DHT22;35358;49.342;8.802;2022-09-09T11:49:44;21.90;99.90
49465;DHT22;35358;49.342;8.802;2022-09-09T11:52:24;21.90;99.90
49465;DHT22;35358;49.342;8.802;2022-09-09T11:54:54;21.90;99.90
49465;DHT22;35358;49.342;8.802;2022-09-09T11:57:30;21.70;99.90
49465;DHT22;35358;49.342;8.802;2022-09-09T11:59:57;21.80;99.90
49465;DHT22;35358;49.342;8.802;2022-09-09T12:02:26;21.60;99.90
49465;DHT22;35358;49.342;8.802;2022-09-09T12:17:23;21.40;99.90
49465;DHT22;35358;49.342;8.802;2022-09-09T12:19:59;21.20;99.90
49465;DHT22;35358;49.342;8.802;2022-09-09T12:22:45;21.50;99.90
49465;DHT22;35358;49.342;8.802;2022-09-09T12:27:48;21.90;99.90
49465;DHT22;35358;49.342;8.802;2022-09-09T12:30:18;21.80;99.90
49465;DHT22;35358;49.342;8.802;2022-09-09T12:32:45;21.70;99.90
49465;DHT22;35358;49.342;8.802;2022-09-09T12:35:18;21.50;99.90
49465;DHT22;35358;49.342;8.802;2022-09-09T12:38:01;21.40;99.90
49465;DHT22;35358;49.342;8.802;2022-09-09T12:40:28;21.30;99.90
49465;DHT22;35358;49.342;8.802;2022-09-09T12:42:54;21.10;99.90
49465;DHT22;35358;49.342;8.802;2022-09-09T12:45:26;20.90;99.90
49465;DHT22;35358;49.342;8.802;2022-09-09T12:48:00;20.80;99.90
49465;DHT22;35358;49.342;8.802;2022-09-09T12:50:28;20.70;99.90
49465;DHT22;35358;49.342;8.802;2022-09-09T12:52:58;20.60;99.90
49465;DHT22;35358;49.342;8.802;2022-09-09T12:55:25;20.40;99.90
49465;DHT22;35358;49.342;8.802;2022-09-09T12:57:57;20.30;99.90
49465;DHT22;35358;49.342;8.802;2022-09-09T13:00:29;20.10;99.90
49465;DHT22;35358;49.342;8.802;2022-09-09T13:02:56;20.10;99.90
49465;DHT22;35358;49.342;8.802;2022-09-09T13:05:25;20.20;99.90
49465;DHT22;35358;49.342;8.802;2022-09-09T13:07:51;20.10;99.90
49465;DHT22;35358;49.342;8.802;2022-09-09T13:10:24;20.10;99.90
49465;DHT22;35358;49.342;8.802;2022-09-09T13:12:56;20.10;99.90
49465;DHT22;35358;49.342;8.802;2022-09-09T13:15:24;20.10;99.90
49465;DHT22;35358;49.342;8.802;2022-09-09T13:17:52;20.10;99.90
49465;DHT22;35358;49.342;8.802;2022-09-09T13:20:23;20.10;99.90
49465;DHT22;35358;49.342;8.802;2022-09-09T13:22:49;19.90;99.90
49465;DHT22;35358;49.342;8.802;2022-09-09T13:25:22;19.80;99.90
49465;DHT22;35358;49.342;8.802;2022-09-09T13:27:51;19.70;99.90
49465;DHT22;35358;49.342;8.802;2022-09-09T13:33:06;19.60;99.90
49465;DHT22;35358;49.342;8.802;2022-09-09T13:35:32;19.50;99.90
49465;DHT22;35358;49.342;8.802;2022-09-09T13:37:58;19.40;99.90
49465;DHT22;35358;49.342;8.802;2022-09-09T13:40:24;19.20;99.90
49465;DHT22;35358;49.342;8.802;2022-09-09T13:42:56;19.10;99.90
49465;DHT22;35358;49.342;8.802;2022-09-09T13:45:22;18.80;99.90
49465;DHT22;35358;49.342;8.802;2022-09-09T13:47:52;18.50;99.90
49465;DHT22;35358;49.342;8.802;2022-09-09T13:52:55;17.80;99.90
49465;DHT22;35358;49.342;8.802;2022-09-09T13:55:24;17.60;99.90
49465;DHT22;35358;49.342;8.802;2022-09-09T14:00:17;17.30;99.90
49465;DHT22;35358;49.342;8.802;2022-09-09T14:02:43;17.30;99.90
49465;DHT22;35358;49.342;8.802;2022-09-09T14:05:09;17.50;99.90
49465;DHT22;35358;49.342;8.802;2022-09-09T14:07:37;17.60;99.90
49465;DHT22;35358;49.342;8.802;2022-09-09T14:10:04;17.70;99.90
49465;DHT22;35358;49.342;8.802;2022-09-09T14:12:32;17.70;99.90
49465;DHT22;35358;49.342;8.802;2022-09-09T14:14:58;18.10;99.90
49465;DHT22;35358;49.342;8.802;2022-09-09T14:17:27;18.60;99.90
49465;DHT22;35358;49.342;8.802;2022-09-09T14:19:55;19.00;99.90
49465;DHT22;35358;49.342;8.802;2022-09-09T14:22:21;19.80;99.90
49465;DHT22;35358;49.342;8.802;2022-09-09T14:24:47;19.80;99.90
49465;DHT22;35358;49.342;8.802;2022-09-09T14:27:17;20.30;99.90
49465;DHT22;35358;49.342;8.802;2022-09-09T14:29:44;20.20;99.90
49465;DHT22;35358;49.342;8.802;2022-09-09T14:32:09;20.80;99.90
49465;DHT22;35358;49.342;8.802;2022-09-09T14:34:37;20.90;99.90
49465;DHT22;35358;49.342;8.802;2022-09-09T14:37:03;21.20;99.90
49465;DHT22;35358;49.342;8.802;2022-09-09T14:39:31;21.40;99.90
49465;DHT22;35358;49.342;8.802;2022-09-09T14:41:57;21.70;99.90
49465;DHT22;35358;49.342;8.802;2022-09-09T14:44:25;22.10;99.90
49465;DHT22;35358;49.342;8.802;2022-09-09T14:46:51;21.90;99.90
49465;DHT22;35358;49.342;8.802;2022-09-09T14:49:19;21.90;99.90
49465;DHT22;35358;49.342;8.802;2022-09-09T14:51:45;22.10;99.90
49465;DHT22;35358;49.342;8.802;2022-09-09T14:54:10;22.30;99.90
49465;DHT22;35358;49.342;8.802;2022-09-09T14:56:36;22.30;99.90
49465;DHT22;35358;49.342;8.802;2022-09-09T14:59:01;22.20;99.90
49465;DHT22;35358;49.342;8.802;2022-09-09T15:01:28;22.30;99.90
49465;DHT22;35358;49.342;8.802;2022-09-09T15:03:58;22.50;99.90
49465;DHT22;35358;49.342;8.802;2022-09-09T15:06:24;22.60;99.90
49465;DHT22;35358;49.342;8.802;2022-09-09T15:08:51;21.80;99.90
49465;DHT22;35358;49.342;8.802;2022-09-09T15:11:20;21.30;99.90
49465;DHT22;35358;49.342;8.802;2022-09-09T15:13:46;21.00;99.90
49465;DHT22;35358;49.342;8.802;2022-09-09T15:16:16;20.60;99.90
49465;DHT22;35358;49.342;8.802;2022-09-09T15:18:42;20.40;99.90
49465;DHT22;35358;49.342;8.802;2022-09-09T15:21:11;20.30;99.90
49465;DHT22;35358;49.342;8.802;2022-09-09T15:23:36;20.20;99.90
49465;DHT22;35358;49.342;8.802;2022-09-09T15:26:03;20.10;99.90
49465;DHT22;35358;49.342;8.802;2022-09-09T15:28:29;20.00;99.90
49465;DHT22;35358;49.342;8.802;2022-09-09T15:30:56;20.00;99.90
49465;DHT22;35358;49.342;8.802;2022-09-09T15:33:22;19.90;99.90
49465;DHT22;35358;49.342;8.802;2022-09-09T15:35:47;19.90;99.90
49465;DHT22;35358;49.342;8.802;2022-09-09T15:38:14;19.80;99.90
49465;DHT22;35358;49.342;8.802;2022-09-09T15:40:40;19.70;99.90
49465;DHT22;35358;49.342;8.802;2022-09-09T15:43:06;19.70;99.90
49465;DHT22;35358;49.342;8.802;2022-09-09T15:45:32;19.60;99.90
49465;DHT22;35358;49.342;8.802;2022-09-09T15:47:59;19.60;99.90
49465;DHT22;35358;49.342;8.802;2022-09-09T15:50:29;19.40;99.90
49465;DHT22;35358;49.342;8.802;2022-09-09T15:52:56;19.40;99.90
49465;DHT22;35358;49.342;8.802;2022-09-09T15:55:22;19.40;99.90
49465;DHT22;35358;49.342;8.802;2022-09-09T15:57:49;19.40;99.90
49465;DHT22;35358;49.342;8.802;2022-09-09T16:00:15;19.40;99.90
49465;DHT22;35358;49.342;8.802;2022-09-09T16:02:40;19.40;99.90
49465;DHT22;35358;49.342;8.802;2022-09-09T16:05:06;19.40;99.90
49465;DHT22;35358;49.342;8.802;2022-09-09T16:07:33;19.40;99.90
49465;DHT22;35358;49.342;8.802;2022-09-09T16:10:01;19.50;99.90
49465;DHT22;35358;49.342;8.802;2022-09-09T16:12:30;19.50;99.90
49465;DHT22;35358;49.342;8.802;2022-09-09T16:14:56;20.10;99.90
49465;DHT22;35358;49.342;8.802;2022-09-09T16:17:21;20.40;99.90
49465;DHT22;35358;49.342;8.802;2022-09-09T16:19:47;21.00;99.90
49465;DHT22;35358;49.342;8.802;2022-09-09T16:22:12;21.40;99.90
49465;DHT22;35358;49.342;8.802;2022-09-09T16:24:42;21.10;99.90
49465;DHT22;35358;49.342;8.802;2022-09-09T16:27:09;20.50;99.90
49465;DHT22;35358;49.342;8.802;2022-09-09T16:29:36;20.10;99.90
49465;DHT22;35358;49.342;8.802;2022-09-09T16:32:02;20.00;99.90
49465;DHT22;35358;49.342;8.802;2022-09-09T16:34:27;19.70;99.90
49465;DHT22;35358;49.342;8.802;2022-09-09T16:36:53;19.60;99.90
49465;DHT22;35358;49.342;8.802;2022-09-09T16:39:19;19.50;99.90
49465;DHT22;35358;49.342;8.802;2022-09-09T16:41:45;19.30;99.90
49465;DHT22;35358;49.342;8.802;2022-09-09T16:44:13;19.20;99.90
49465;DHT22;35358;49.342;8.802;2022-09-09T16:46:39;19.00;99.90
49465;DHT22;35358;49.342;8.802;2022-09-09T16:49:06;19.10;99.90
49465;DHT22;35358;49.342;8.802;2022-09-09T16:51:34;19.00;99.90
49465;DHT22;35358;49.342;8.802;2022-09-09T16:54:00;18.80;99.90
49465;DHT22;35358;49.342;8.802;2022-09-09T16:56:28;18.70;99.90
49465;DHT22;35358;49.342;8.802;2022-09-09T16:58:54;18.60;99.90
49465;DHT22;35358;49.342;8.802;2022-09-09T17:01:21;18.60;99.90
49465;DHT22;35358;49.342;8.802;2022-09-09T17:03:55;18.60;99.90
49465;DHT22;35358;49.342;8.802;2022-09-09T17:06:21;18.50;99.90
49465;DHT22;35358;49.342;8.802;2022-09-09T17:08:46;18.40;99.90
49465;DHT22;35358;49.342;8.802;2022-09-09T17:11:14;18.30;99.90
49465;DHT22;35358;49.342;8.802;2022-09-09T17:13:42;18.20;99.90
49465;DHT22;35358;49.342;8.802;2022-09-09T17:16:13;18.10;99.90
49465;DHT22;35358;49.342;8.802;2022-09-09T17:18:44;18.10;99.90
49465;DHT22;35358;49.342;8.802;2022-09-09T17:21:12;18.10;99.90
49465;DHT22;35358;49.342;8.802;2022-09-09T17:23:39;18.20;99.90
49465;DHT22;35358;49.342;8.802;2022-09-09T17:26:06;18.20;99.90
49465;DHT22;35358;49.342;8.802;2022-09-09T17:28:33;18.20;99.90
49465;DHT22;35358;49.342;8.802;2022-09-09T17:30:58;18.20;99.90
49465;DHT22;35358;49.342;8.802;2022-09-09T17:33:28;18.20;99.90
49465;DHT22;35358;49.342;8.802;2022-09-09T17:36:00;18.20;99.90
49465;DHT22;35358;49.342;8.802;2022-09-09T17:38:26;18.10;99.90
49465;DHT22;35358;49.342;8.802;2022-09-09T17:41:00;17.90;99.90
49465;DHT22;35358;49.342;8.802;2022-09-09T17:43:26;17.80;99.90
49465;DHT22;35358;49.342;8.802;2022-09-09T17:45:53;17.70;99.90
49465;DHT22;35358;49.342;8.802;2022-09-09T17:48:19;17.70;99.90
49465;DHT22;35358;49.342;8.802;2022-09-09T17:50:44;17.50;99.90
49465;DHT22;35358;49.342;8.802;2022-09-09T17:53:11;17.40;99.90
49465;DHT22;35358;49.342;8.802;2022-09-09T17:55:37;17.30;99.90
49465;DHT22;35358;49.342;8.802;2022-09-09T17:58:02;17.30;99.90
49465;DHT22;35358;49.342;8.802;2022-09-09T18:00:28;17.20;99.90
49465;DHT22;35358;49.342;8.802;2022-09-09T18:02:55;17.20;99.90
49465;DHT22;35358;49.342;8.802;2022-09-09T18:05:20;17.10;99.90